createdAt,value
2019-05-29T00:03:00.109Z,99.90
2019-05-29T00:08:04.195Z,99.90
2019-05-29T00:13:08.181Z,99.90
2019-05-29T00:18:12.462Z,99.90
2019-05-29T00:23:16.268Z,99.90
2019-05-29T00:28:19.945Z,99.90
2019-05-29T00:33:23.596Z,99.90
2019-05-29T00:38:27.196Z,99.90
2019-05-29T00:43:31.148Z,99.90
2019-05-29T00:48:34.844Z,99.90
2019-05-29T00:53:38.510Z,99.90
2019-05-29T00:58:42.096Z,99.90
2019-05-29T01:03:45.971Z,99.90
2019-05-29T01:08:50.397Z,99.90
2019-05-29T01:13:53.983Z,99.90
2019-05-29T01:18:59.572Z,99.90
2019-05-29T01:24:03.530Z,99.90
2019-05-29T01:29:07.188Z,99.90
2019-05-29T01:34:10.868Z,99.90
2019-05-29T01:39:15.135Z,99.90
2019-05-29T01:44:19.338Z,99.90
2019-05-29T01:49:23.847Z,99.90
2019-05-29T01:54:27.957Z,99.90
2019-05-29T01:59:31.618Z,99.90
2019-05-29T02:04:35.272Z,99.90
2019-05-29T02:09:39.288Z,99.90
2019-05-29T02:14:42.934Z,99.90
2019-05-29T02:19:46.597Z,99.90
2019-05-29T02:24:50.185Z,99.90
2019-05-29T02:29:53.776Z,99.90
2019-05-29T02:34:57.430Z,99.90
2019-05-29T02:40:01.084Z,99.90
2019-05-29T02:45:07.326Z,99.90
2019-05-29T02:50:11.575Z,99.90
2019-05-29T02:55:15.399Z,99.90
2019-05-29T03:00:21.101Z,99.90
2019-05-29T03:05:25.965Z,99.90
2019-05-29T03:10:49.382Z,99.90
2019-05-29T03:16:09.548Z,99.90
2019-05-29T03:20:58.614Z,99.90
2019-05-29T03:26:02.215Z,99.90
2019-05-29T03:31:06.263Z,99.90
2019-05-29T03:36:09.845Z,99.90
2019-05-29T03:41:13.417Z,99.90
2019-05-29T03:46:30.293Z,99.90
2019-05-29T03:51:22.281Z,99.90
2019-05-29T03:56:26.512Z,99.90
2019-05-29T04:01:31.740Z,99.90
2019-05-29T04:06:37.468Z,99.90
2019-05-29T04:11:42.062Z,99.90
2019-05-29T04:16:59.327Z,99.90
2019-05-29T04:21:55.668Z,99.90
2019-05-29T04:27:01.578Z,99.90
2019-05-29T04:32:05.230Z,99.90
2019-05-29T04:37:08.857Z,99.90
2019-05-29T04:42:12.546Z,99.90
2019-05-29T04:47:16.193Z,99.90
2019-05-29T04:52:20.230Z,99.90
2019-05-29T04:57:24.161Z,99.90
2019-05-29T05:02:28.846Z,99.90
2019-05-29T05:07:33.217Z,99.90
2019-05-29T05:12:37.868Z,99.90
2019-05-29T05:17:41.917Z,99.90
2019-05-29T05:22:45.501Z,99.90
2019-05-29T05:27:49.441Z,99.90
2019-05-29T05:32:53.408Z,99.90
2019-05-29T05:37:57.398Z,99.90
2019-05-29T05:43:01.460Z,99.90
2019-05-29T05:48:05.135Z,99.90
2019-05-29T05:53:08.948Z,99.90
2019-05-29T05:58:12.944Z,99.90
2019-05-29T06:03:16.974Z,99.90
2019-05-29T06:08:20.709Z,99.90
2019-05-29T06:13:24.661Z,99.90
2019-05-29T06:18:28.326Z,99.90
2019-05-29T06:23:32.788Z,99.90
2019-05-29T06:28:37.079Z,99.90
2019-05-29T06:33:41.542Z,99.90
2019-05-29T06:38:45.645Z,99.90
2019-05-29T06:43:49.314Z,99.90
2019-05-29T06:48:59.430Z,99.90
2019-05-29T06:53:58.157Z,99.90
2019-05-29T06:59:01.833Z,99.90
2019-05-29T07:04:11.922Z,99.90
2019-05-29T07:09:11.271Z,99.90
2019-05-29T07:14:14.873Z,99.90
2019-05-29T07:19:26.496Z,99.90
2019-05-29T07:24:23.989Z,99.90
2019-05-29T07:29:27.629Z,99.90
2019-05-29T07:34:47.383Z,99.80
2019-05-29T07:39:37.350Z,99.90
2019-05-29T07:44:42.145Z,99.90
2019-05-29T07:49:47.158Z,98.70
2019-05-29T07:54:51.611Z,99.10
2019-05-29T07:59:55.197Z,96.60
2019-05-29T08:04:59.206Z,96.80
2019-05-29T08:10:04.042Z,97.50
2019-05-29T08:15:08.252Z,97.70
2019-05-29T08:20:12.478Z,99.10
2019-05-29T08:25:16.675Z,97.90
2019-05-29T08:30:21.722Z,98.00
2019-05-29T08:35:25.425Z,95.70
2019-05-29T08:40:30.955Z,97.60
2019-05-29T08:45:34.742Z,94.40
2019-05-29T08:50:38.359Z,93.70
2019-05-29T08:55:42.102Z,94.40
2019-05-29T09:00:49.890Z,95.20
2019-05-29T09:06:07.939Z,94.20
2019-05-29T09:10:56.376Z,94.70
2019-05-29T09:16:00.115Z,94.50
2019-05-29T09:21:04.587Z,93.70
2019-05-29T09:26:15.863Z,91.80
2019-05-29T09:31:15.537Z,91.10
2019-05-29T09:36:20.547Z,90.70
2019-05-29T09:41:25.588Z,89.90
2019-05-29T09:46:29.754Z,89.20
2019-05-29T09:51:33.344Z,84.70
2019-05-29T09:56:38.746Z,87.00
2019-05-29T10:01:42.738Z,87.00
2019-05-29T10:06:46.701Z,85.10
2019-05-29T10:11:50.297Z,75.90
2019-05-29T10:16:56.016Z,81.50
2019-05-29T10:22:01.319Z,84.70
2019-05-29T10:27:06.645Z,80.70
2019-05-29T10:32:10.206Z,78.40
2019-05-29T10:37:13.866Z,77.70
2019-05-29T10:42:20.449Z,72.10
2019-05-29T10:47:23.141Z,79.30
2019-05-29T10:52:28.164Z,80.30
2019-05-29T10:57:32.207Z,81.10
2019-05-29T11:02:35.921Z,81.50
2019-05-29T11:07:39.494Z,81.30
2019-05-29T11:13:02.866Z,79.00
2019-05-29T11:18:06.886Z,81.30
2019-05-29T11:23:10.820Z,70.00
2019-05-29T11:28:14.408Z,72.20
2019-05-29T11:33:18.328Z,69.40
2019-05-29T11:38:22.273Z,69.30
2019-05-29T11:43:26.329Z,74.30
2019-05-29T11:48:30.579Z,75.40
2019-05-29T11:53:34.112Z,77.90
2019-05-29T11:58:37.777Z,78.30
2019-05-29T12:04:06.051Z,75.60
2019-05-29T12:08:46.796Z,75.10
2019-05-29T12:13:51.668Z,74.20
2019-05-29T12:18:55.677Z,77.10
2019-05-29T12:24:00.285Z,75.80
2019-05-29T12:29:11.018Z,72.10
2019-05-29T12:34:18.669Z,67.80
2019-05-29T12:39:14.700Z,70.00
2019-05-29T12:44:18.374Z,74.70
2019-05-29T12:49:21.960Z,79.00
2019-05-29T12:54:25.651Z,80.30
2019-05-29T12:59:29.326Z,80.70
2019-05-29T13:05:02.532Z,80.10
2019-05-29T13:09:39.364Z,74.20
2019-05-29T13:14:43.707Z,73.90
2019-05-29T13:19:47.347Z,74.00
2019-05-29T13:24:53.118Z,75.20
2019-05-29T13:30:00.038Z,69.70
2019-05-29T13:35:06.165Z,69.30
2019-05-29T13:40:12.778Z,66.40
2019-05-29T13:45:19.464Z,65.70
2019-05-29T13:50:23.215Z,69.40
2019-05-29T13:55:27.253Z,67.50
2019-05-29T14:00:34.437Z,70.90
2019-05-29T14:05:37.310Z,69.40
2019-05-29T14:10:41.363Z,70.40
2019-05-29T14:15:45.060Z,70.70
2019-05-29T14:20:49.112Z,71.40
2019-05-29T14:25:53.277Z,69.50
2019-05-29T14:30:57.468Z,69.30
2019-05-29T14:36:01.414Z,73.80
2019-05-29T14:41:05.724Z,71.20
2019-05-29T14:46:10.187Z,71.20
2019-05-29T14:51:14.067Z,69.10
2019-05-29T14:56:18.074Z,68.60
2019-05-29T15:01:21.709Z,62.50
2019-05-29T15:06:25.342Z,64.10
2019-05-29T15:11:30.022Z,65.60
2019-05-29T15:16:33.793Z,64.50
2019-05-29T15:21:37.553Z,66.10
2019-05-29T15:26:41.311Z,65.30
2019-05-29T15:31:45.203Z,59.10
2019-05-29T15:36:49.214Z,59.30
2019-05-29T15:41:54.397Z,59.80
2019-05-29T15:46:57.989Z,60.70
2019-05-29T15:52:01.577Z,62.50
2019-05-29T15:57:05.569Z,65.00
2019-05-29T16:02:09.460Z,65.20
2019-05-29T16:07:16.117Z,65.50
2019-05-29T16:12:19.105Z,64.60
2019-05-29T16:17:24.607Z,62.60
2019-05-29T16:22:28.285Z,64.00
2019-05-29T16:27:31.967Z,63.80
2019-05-29T16:32:36.029Z,64.20
2019-05-29T16:37:39.999Z,65.60
2019-05-29T16:42:43.729Z,66.90
2019-05-29T16:47:47.394Z,67.40
2019-05-29T16:52:51.003Z,67.90
2019-05-29T16:57:54.692Z,66.50
2019-05-29T17:02:58.273Z,67.30
2019-05-29T17:08:01.944Z,64.80
2019-05-29T17:13:07.445Z,67.60
2019-05-29T17:18:11.097Z,68.90
2019-05-29T17:23:15.402Z,69.80
2019-05-29T17:28:23.298Z,69.20
2019-05-29T17:33:25.857Z,70.20
2019-05-29T17:38:29.450Z,70.00
2019-05-29T17:43:33.078Z,70.30
2019-05-29T17:48:37.012Z,72.20
2019-05-29T17:53:40.694Z,73.60
2019-05-29T17:58:44.305Z,73.40
2019-05-29T18:03:48.242Z,73.20
2019-05-29T18:08:51.837Z,73.60
2019-05-29T18:13:55.547Z,70.90
2019-05-29T18:18:59.301Z,71.50
2019-05-29T18:24:02.892Z,71.70
2019-05-29T18:29:06.613Z,72.40
2019-05-29T18:34:10.473Z,72.70
2019-05-29T18:39:14.399Z,72.30
2019-05-29T18:44:17.996Z,71.30
2019-05-29T18:49:22.274Z,71.90
2019-05-29T18:54:25.992Z,76.70
2019-05-29T18:59:31.589Z,83.30
2019-05-29T19:04:35.385Z,87.60
2019-05-29T19:09:39.053Z,89.10
2019-05-29T19:14:42.640Z,90.40
2019-05-29T19:19:46.385Z,91.50
2019-05-29T19:24:50.144Z,92.20
2019-05-29T19:29:54.089Z,92.50
2019-05-29T19:34:57.822Z,92.20
2019-05-29T19:40:01.429Z,93.50
2019-05-29T19:45:08.444Z,93.70
2019-05-29T19:50:32.839Z,94.30
2019-05-29T19:55:38.264Z,94.90
2019-05-29T20:00:42.191Z,95.20
2019-05-29T20:05:45.872Z,95.40
2019-05-29T20:10:49.569Z,95.10
2019-05-29T20:15:53.168Z,94.80
2019-05-29T20:20:56.764Z,94.70
2019-05-29T20:26:00.968Z,95.20
2019-05-29T20:31:04.827Z,96.00
2019-05-29T20:36:08.601Z,96.00
2019-05-29T20:41:12.546Z,95.90
2019-05-29T20:46:16.221Z,96.00
2019-05-29T20:51:19.813Z,96.40
2019-05-29T20:56:23.480Z,96.70
2019-05-29T21:01:27.556Z,97.00
2019-05-29T21:06:32.409Z,96.60
2019-05-29T21:11:37.565Z,96.20
2019-05-29T21:16:41.879Z,96.90
2019-05-29T21:21:45.587Z,96.80
2019-05-29T21:26:49.407Z,96.80
2019-05-29T21:31:53.384Z,96.30
2019-05-29T21:36:57.314Z,96.60
2019-05-29T21:42:01.050Z,97.20
2019-05-29T21:47:05.590Z,97.00
2019-05-29T21:52:09.319Z,96.70
2019-05-29T21:57:13.070Z,97.10
2019-05-29T22:02:16.807Z,97.30
2019-05-29T22:07:20.392Z,97.60
2019-05-29T22:12:24.400Z,97.70
2019-05-29T22:17:28.012Z,98.20
2019-05-29T22:22:31.602Z,98.40
2019-05-29T22:27:35.683Z,98.10
2019-05-29T22:32:39.349Z,98.20
2019-05-29T22:37:43.298Z,98.60
2019-05-29T22:42:47.231Z,98.50
2019-05-29T22:47:51.625Z,98.90
2019-05-29T22:52:55.854Z,99.00
2019-05-29T22:58:00.090Z,99.00
2019-05-29T23:03:03.675Z,99.20
2019-05-29T23:08:07.335Z,99.70
2019-05-29T23:13:11.070Z,99.70
2019-05-29T23:18:14.662Z,99.40
2019-05-29T23:23:18.389Z,99.90
2019-05-29T23:28:22.055Z,99.80
2019-05-29T23:33:25.651Z,99.90
2019-05-29T23:38:29.399Z,99.90
2019-05-29T23:43:33.362Z,99.80
2019-05-29T23:48:37.390Z,99.90
2019-05-29T23:53:41.009Z,99.90
2019-05-29T23:58:44.616Z,99.70
